Time;durP1;ratioP1;P1;durP2;ratioP2;P2;SDS_P1;SDS_P2;PMS_P1;PMS_P2;Temp;Humidity;BMP_temperature;BMP_pressure;BME280_temperature;BME280_humidity;BME280_pressure;Samples;Min_cycle;Max_cycle;Signal;HPM_P1;HPM_P2
2023/06/08 00:00:17;;;;;;;15.40;6.13;;;;;;;;;;6198098;23;20106;-92
2023/06/08 00:02:46;;;;;;;15.38;5.57;;;;;;;;;;6199875;23;20018;-94
2023/06/08 00:05:17;;;;;;;17.40;5.57;;;;;;;;;;6197893;23;20039;-91
2023/06/08 00:07:43;;;;;;;15.90;5.05;;;;;;;;;;6195853;23;20199;-92
2023/06/08 00:10:13;;;;;;;14.63;5.22;;;;;;;;;;6195942;23;20009;-92
2023/06/08 00:12:39;;;;;;;11.20;4.90;;;;;;;;;;6194666;23;20024;-92
2023/06/08 00:15:06;;;;;;;11.50;4.97;;;;;;;;;;6197159;23;20060;-92
2023/06/08 00:17:32;;;;;;;16.75;5.57;;;;;;;;;;6196298;23;20047;-93
2023/06/08 00:20:07;;;;;;;16.58;6.13;;;;;;;;;;6196468;23;20447;-92
2023/06/08 00:22:42;;;;;;;18.58;5.07;;;;;;;;;;6195365;23;20009;-92
2023/06/08 00:25:09;;;;;;;13.75;5.32;;;;;;;;;;6193561;23;20004;-92
2023/06/08 00:27:41;;;;;;;19.52;5.57;;;;;;;;;;6194649;23;20012;-93
2023/06/08 00:30:07;;;;;;;14.82;5.10;;;;;;;;;;6195623;23;20008;-92
2023/06/08 00:32:50;;;;;;;20.08;6.45;;;;;;;;;;6196292;23;20028;-93
2023/06/08 00:35:16;;;;;;;20.92;7.53;;;;;;;;;;6195979;23;20008;-92
2023/06/08 00:37:43;;;;;;;19.48;5.50;;;;;;;;;;6193743;23;20088;-93
2023/06/08 00:40:13;;;;;;;19.35;6.32;;;;;;;;;;6219084;23;20435;-92
2023/06/08 00:42:39;;;;;;;22.15;6.45;;;;;;;;;;6191828;23;20012;-93
2023/06/08 00:45:10;;;;;;;20.35;5.80;;;;;;;;;;6190974;23;20013;-93
2023/06/08 00:47:37;;;;;;;12.38;5.80;;;;;;;;;;6192139;23;20008;-93
2023/06/08 00:50:03;;;;;;;16.42;6.85;;;;;;;;;;6190469;23;20100;-93
2023/06/08 00:52:50;;;;;;;21.25;7.10;;;;;;;;;;6192745;23;20013;-93
2023/06/08 00:55:35;;;;;;;21.60;6.47;;;;;;;;;;6177330;23;20012;-92
2023/06/08 00:58:11;;;;;;;18.90;7.13;;;;;;;;;;6193152;23;20032;-92
2023/06/08 01:00:46;;;;;;;27.17;7.97;;;;;;;;;;6193116;23;20025;-92
2023/06/08 01:03:16;;;;;;;23.00;7.60;;;;;;;;;;6193089;23;20070;-92
2023/06/08 01:05:43;;;;;;;19.83;7.10;;;;;;;;;;6190739;23;20016;-92
2023/06/08 01:08:39;;;;;;;27.83;7.70;;;;;;;;;;6190980;23;20030;-92
2023/06/08 01:11:32;;;;;;;14.80;6.82;;;;;;;;;;6182917;23;20066;-93
2023/06/08 01:14:03;;;;;;;17.52;6.93;;;;;;;;;;6192741;23;20303;-92
2023/06/08 01:16:32;;;;;;;16.08;6.88;;;;;;;;;;6191459;23;20040;-92
2023/06/08 01:19:01;;;;;;;20.35;8.70;;;;;;;;;;6192444;23;20096;-92
2023/06/08 01:21:30;;;;;;;22.30;7.60;;;;;;;;;;6193167;23;20016;-92
2023/06/08 01:24:20;;;;;;;18.90;7.18;;;;;;;;;;6192719;23;20072;-92
2023/06/08 01:26:49;;;;;;;21.35;7.45;;;;;;;;;;6191414;23;20078;-92
2023/06/08 01:29:17;;;;;;;21.10;7.13;;;;;;;;;;6193226;23;20052;-93
2023/06/08 01:31:43;;;;;;;23.95;6.32;;;;;;;;;;6192006;23;20048;-92
2023/06/08 01:34:11;;;;;;;17.10;6.07;;;;;;;;;;6193953;23;20009;-92
2023/06/08 01:36:43;;;;;;;20.73;6.25;;;;;;;;;;6190844;23;20013;-92
2023/06/08 01:39:18;;;;;;;22.77;6.53;;;;;;;;;;6192878;23;20004;-93
2023/06/08 01:41:56;;;;;;;19.70;5.88;;;;;;;;;;6192044;23;20039;-92
2023/06/08 01:44:23;;;;;;;19.25;6.63;;;;;;;;;;6190861;23;20369;-92
2023/06/08 01:46:54;;;;;;;13.02;5.25;;;;;;;;;;6190845;23;20032;-92
2023/06/08 01:49:21;;;;;;;18.58;7.68;;;;;;;;;;6190145;23;20032;-92
2023/06/08 01:51:51;;;;;;;13.40;6.38;;;;;;;;;;6190748;23;20518;-92
2023/06/08 01:54:18;;;;;;;18.20;6.18;;;;;;;;;;6191443;23;20008;-93
2023/06/08 01:56:46;;;;;;;24.17;6.35;;;;;;;;;;6192290;23;20016;-92
2023/06/08 01:59:13;;;;;;;16.50;6.43;;;;;;;;;;6190581;23;20020;-93
2023/06/08 02:01:39;;;;;;;13.68;6.88;;;;;;;;;;6192816;23;20372;-92
2023/06/08 02:04:06;;;;;;;12.90;6.45;;;;;;;;;;6192761;23;20063;-92
2023/06/08 02:06:32;;;;;;;17.23;6.85;;;;;;;;;;6195624;23;20005;-93
2023/06/08 02:09:00;;;;;;;20.67;6.65;;;;;;;;;;6195438;23;20004;-92
2023/06/08 02:11:26;;;;;;;21.75;7.20;;;;;;;;;;6196013;23;20004;-92
2023/06/08 02:14:16;;;;;;;16.38;6.88;;;;;;;;;;6219685;23;20008;-91
2023/06/08 02:16:40;;;;;;;;;;;;;;;;;;6219716;23;20379;-93
2023/06/08 02:19:13;;;;;;;23.92;6.57;;;;;;;;;;6195956;23;19900;-93
2023/06/08 02:21:40;;;;;;;24.45;7.88;;;;;;;;;;6196132;23;20008;-92
2023/06/08 02:24:06;;;;;;;23.92;8.00;;;;;;;;;;6196708;23;20024;-92
2023/06/08 02:26:33;;;;;;;15.05;6.32;;;;;;;;;;6197452;23;20039;-92
2023/06/08 02:28:59;;;;;;;19.05;6.72;;;;;;;;;;6219773;23;20008;-92
2023/06/08 02:31:26;;;;;;;31.80;7.03;;;;;;;;;;6196748;23;20028;-92
2023/06/08 02:33:52;;;;;;;22.25;7.10;;;;;;;;;;6196059;23;20012;-93
2023/06/08 02:36:19;;;;;;;21.35;6.68;;;;;;;;;;6195083;23;20009;-92
2023/06/08 02:38:45;;;;;;;24.02;6.70;;;;;;;;;;6196127;23;20449;-92
2023/06/08 02:41:14;;;;;;;27.98;7.05;;;;;;;;;;6196063;23;20008;-92
2023/06/08 02:43:40;;;;;;;21.95;6.43;;;;;;;;;;6196714;23;20406;-92
2023/06/08 02:46:06;;;;;;;20.63;6.55;;;;;;;;;;6196087;23;20005;-92
2023/06/08 02:48:32;;;;;;;10.93;5.95;;;;;;;;;;6197236;23;20005;-91
2023/06/08 02:50:59;;;;;;;18.55;6.63;;;;;;;;;;6197257;23;20004;-93
2023/06/08 02:53:26;;;;;;;17.77;6.80;;;;;;;;;;6222689;23;20008;-92
2023/06/08 02:55:53;;;;;;;21.15;6.63;;;;;;;;;;6195584;23;20268;-93
2023/06/08 02:58:20;;;;;;;22.40;8.00;;;;;;;;;;6196964;23;20046;-92
2023/06/08 03:00:48;;;;;;;18.92;7.10;;;;;;;;;;6195627;23;20019;-93
2023/06/08 03:03:15;;;;;;;21.52;7.60;;;;;;;;;;6196043;23;20011;-92
2023/06/08 03:05:43;;;;;;;21.88;6.97;;;;;;;;;;6196584;23;20023;-92
2023/06/08 03:08:09;;;;;;;18.33;7.95;;;;;;;;;;6221416;23;20072;-92
2023/06/08 03:10:35;;;;;;;22.77;7.15;;;;;;;;;;6196366;23;20399;-92
2023/06/08 03:13:01;;;;;;;17.65;5.90;;;;;;;;;;6220073;23;20108;-93
2023/06/08 03:15:29;;;;;;;21.70;7.10;;;;;;;;;;6197679;23;20012;-92
2023/06/08 03:17:56;;;;;;;25.17;8.13;;;;;;;;;;6197222;23;20435;-92
2023/06/08 03:20:22;;;;;;;20.55;7.45;;;;;;;;;;6196667;23;20094;-93
2023/06/08 03:22:51;;;;;;;15.50;6.90;;;;;;;;;;6196931;23;20031;-92
2023/06/08 03:25:17;;;;;;;13.98;6.88;;;;;;;;;;6198474;23;20321;-92
2023/06/08 03:27:46;;;;;;;16.58;5.50;;;;;;;;;;6198863;23;20004;-93
2023/06/08 03:30:12;;;;;;;16.90;5.88;;;;;;;;;;6198085;23;20020;-92
2023/06/08 03:32:48;;;;;;;16.42;5.63;;;;;;;;;;6197214;23;20446;-92
2023/06/08 03:35:15;;;;;;;21.55;6.00;;;;;;;;;;6197387;23;20024;-91
2023/06/08 03:37:41;;;;;;;19.50;5.68;;;;;;;;;;6197026;23;20016;-93
2023/06/08 03:40:08;;;;;;;16.33;5.05;;;;;;;;;;6191238;23;20015;-91
2023/06/08 03:42:34;;;;;;;19.10;5.60;;;;;;;;;;6195130;23;20017;-91
2023/06/08 03:45:00;;;;;;;20.50;5.28;;;;;;;;;;6216048;23;20008;-91
2023/06/08 03:47:26;;;;;;;14.23;6.03;;;;;;;;;;6196315;23;20008;-91
2023/06/08 03:49:53;;;;;;;20.75;5.95;;;;;;;;;;6196151;23;20278;-92
2023/06/08 03:52:19;;;;;;;16.38;5.32;;;;;;;;;;6196303;23;20027;-92
2023/06/08 03:54:45;;;;;;;19.40;5.97;;;;;;;;;;6195390;23;20076;-91
2023/06/08 03:57:15;;;;;;;15.90;5.75;;;;;;;;;;6194416;23;20040;-91
2023/06/08 03:59:42;;;;;;;17.98;5.65;;;;;;;;;;6194962;23;20031;-92
2023/06/08 04:02:08;;;;;;;18.63;5.55;;;;;;;;;;6193849;23;20383;-91
2023/06/08 04:04:35;;;;;;;16.35;5.78;;;;;;;;;;6192884;23;20009;-91
2023/06/08 04:07:07;;;;;;;15.68;4.57;;;;;;;;;;6193091;23;20008;-92
2023/06/08 04:09:40;;;;;;;16.17;4.57;;;;;;;;;;6192237;23;20008;-93
2023/06/08 04:12:06;;;;;;;17.63;5.40;;;;;;;;;;6191909;23;20015;-92
2023/06/08 04:14:32;;;;;;;21.65;5.97;;;;;;;;;;6218019;23;20012;-91
2023/06/08 04:16:59;;;;;;;15.15;5.07;;;;;;;;;;6192104;23;20360;-92
2023/06/08 04:19:25;;;;;;;17.42;4.95;;;;;;;;;;6193998;23;20055;-93
2023/06/08 04:21:56;;;;;;;13.93;5.70;;;;;;;;;;6193571;23;20028;-92
2023/06/08 04:24:28;;;;;;;20.33;5.82;;;;;;;;;;6192386;23;20396;-93
2023/06/08 04:26:57;;;;;;;17.77;5.78;;;;;;;;;;6191971;23;20011;-93
2023/06/08 04:29:24;;;;;;;19.25;5.50;;;;;;;;;;6193628;23;20009;-92
2023/06/08 04:31:50;;;;;;;25.20;6.60;;;;;;;;;;6191938;23;20031;-93
2023/06/08 04:34:16;;;;;;;16.42;6.03;;;;;;;;;;6192071;23;20067;-93
2023/06/08 04:36:43;;;;;;;17.30;5.47;;;;;;;;;;6193262;23;20036;-93
2023/06/08 04:39:13;;;;;;;12.50;5.07;;;;;;;;;;6193442;23;20008;-93
2023/06/08 04:41:40;;;;;;;18.45;5.43;;;;;;;;;;6195171;23;20013;-93
2023/06/08 04:44:08;;;;;;;17.38;5.55;;;;;;;;;;6193780;23;20012;-92
2023/06/08 04:46:44;;;;;;;21.13;6.00;;;;;;;;;;6193568;23;20388;-93
2023/06/08 04:49:12;;;;;;;12.90;5.15;;;;;;;;;;6192780;23;20394;-93
2023/06/08 04:51:46;;;;;;;12.98;5.25;;;;;;;;;;6194883;23;20054;-93
2023/06/08 04:54:15;;;;;;;17.70;5.25;;;;;;;;;;6194864;23;20092;-93
2023/06/08 04:56:42;;;;;;;21.83;5.72;;;;;;;;;;6195554;23;20038;-92
2023/06/08 04:59:11;;;;;;;26.13;5.57;;;;;;;;;;6195849;23;20382;-93
2023/06/08 05:01:41;;;;;;;22.20;5.32;;;;;;;;;;6194744;23;20103;-93
2023/06/08 05:04:07;;;;;;;26.48;5.72;;;;;;;;;;6194991;23;20099;-93
2023/06/08 05:06:35;;;;;;;16.15;5.25;;;;;;;;;;6195497;23;20009;-93
2023/06/08 05:09:05;;;;;;;13.40;4.90;;;;;;;;;;6195445;23;20007;-93
2023/06/08 05:11:35;;;;;;;15.40;5.43;;;;;;;;;;6197725;23;20005;-93
2023/06/08 05:14:01;;;;;;;21.60;5.30;;;;;;;;;;6197597;23;20519;-93
2023/06/08 05:16:27;;;;;;;15.65;5.07;;;;;;;;;;6197483;23;20009;-93
2023/06/08 05:19:37;;;;;;;;;;;;;;;;;;;;;
2023/06/08 05:22:21;;;;;;;18.33;4.95;;;;;;;;;;6140785;23;20010;-93
2023/06/08 05:25:02;;;;;;;18.08;4.93;;;;;;;;;;6115616;23;20014;-93
2023/06/08 05:30:39;;;;;;;15.35;5.18;;;;;;;;;;6127855;23;20037;-92
2023/06/08 05:33:25;;;;;;;;;;;;;;;;;;;;;
2023/06/08 05:36:37;;;;;;;12.45;4.45;;;;;;;;;;6044353;23;20051;-92
2023/06/08 05:39:26;;;;;;;15.00;4.70;;;;;;;;;;6200854;23;20019;-92
2023/06/08 05:42:31;;;;;;;14.32;4.57;;;;;;;;;;6203485;23;20023;-92
2023/06/08 05:48:11;;;;;;;;;;;;;;;;;;;;;
2023/06/08 05:54:05;;;;;;;19.00;5.32;;;;;;;;;;6112125;23;20021;-93
2023/06/08 05:56:32;;;;;;;13.30;5.28;;;;;;;;;;6211050;23;20029;-93
2023/06/08 05:59:38;;;;;;;24.58;4.95;;;;;;;;;;6170305;23;20033;-93
2023/06/08 06:09:26;;;;;;;13.30;4.85;;;;;;;;;;6205471;23;20084;-93
2023/06/08 06:12:15;;;;;;;19.35;5.32;;;;;;;;;;6235933;23;20013;-93
2023/06/08 06:14:42;;;;;;;15.35;4.53;;;;;;;;;;6186947;23;20008;-93
2023/06/08 06:17:15;;;;;;;16.70;5.35;;;;;;;;;;6226188;23;20028;-91
2023/06/08 06:19:48;;;;;;;12.38;4.32;;;;;;;;;;6176918;23;20019;-93
2023/06/08 06:22:20;;;;;;;15.85;5.63;;;;;;;;;;6173485;23;20013;-95
2023/06/08 06:24:47;;;;;;;22.55;4.80;;;;;;;;;;6203011;23;20414;-93
2023/06/08 06:27:16;;;;;;;19.63;5.25;;;;;;;;;;6203111;23;20004;-94
2023/06/08 06:29:45;;;;;;;17.58;5.22;;;;;;;;;;6203060;23;20390;-94
2023/06/08 06:32:12;;;;;;;10.63;4.53;;;;;;;;;;6203014;23;20014;-93
2023/06/08 06:34:38;;;;;;;16.40;3.85;;;;;;;;;;6201509;23;20005;-93
2023/06/08 06:37:08;;;;;;;21.80;4.65;;;;;;;;;;6202170;23;20012;-95
2023/06/08 06:39:51;;;;;;;10.85;4.75;;;;;;;;;;6204162;23;20009;-93
2023/06/08 06:42:18;;;;;;;16.02;4.70;;;;;;;;;;6201522;23;20077;-93
2023/06/08 06:44:44;;;;;;;14.23;4.55;;;;;;;;;;6201434;23;20000;-93
2023/06/08 06:47:10;;;;;;;14.00;4.07;;;;;;;;;;6199453;23;20016;-94
2023/06/08 06:49:37;;;;;;;10.65;4.10;;;;;;;;;;6203124;23;20012;-94
2023/06/08 06:52:06;;;;;;;15.05;4.03;;;;;;;;;;6200085;23;20012;-93
2023/06/08 06:54:35;;;;;;;24.75;5.13;;;;;;;;;;6228203;23;20030;-93
2023/06/08 06:57:01;;;;;;;14.85;4.15;;;;;;;;;;6202960;23;20012;-93
2023/06/08 06:59:34;;;;;;;16.98;4.15;;;;;;;;;;6202353;23;20013;-94
2023/06/08 07:02:07;;;;;;;14.10;4.25;;;;;;;;;;6202227;23;20023;-93
2023/06/08 07:04:33;;;;;;;10.27;4.32;;;;;;;;;;6202575;23;20084;-94
2023/06/08 07:07:01;;;;;;;9.45;3.67;;;;;;;;;;6201633;23;20080;-95
2023/06/08 07:09:28;;;;;;;16.75;4.47;;;;;;;;;;6202522;23;20009;-94
2023/06/08 07:11:57;;;;;;;19.45;4.22;;;;;;;;;;6199987;23;20007;-94
2023/06/08 07:14:24;;;;;;;17.30;5.05;;;;;;;;;;6202289;23;20028;-92
2023/06/08 07:16:55;;;;;;;13.40;4.00;;;;;;;;;;6201867;23;20012;-93
2023/06/08 07:19:21;;;;;;;16.48;3.88;;;;;;;;;;6201430;23;20008;-94
2023/06/08 07:21:52;;;;;;;12.75;3.50;;;;;;;;;;6201384;23;20078;-93
2023/06/08 07:24:18;;;;;;;11.80;3.88;;;;;;;;;;6201196;23;20047;-94
2023/06/08 07:26:45;;;;;;;10.00;3.53;;;;;;;;;;6201221;23;20004;-93
2023/06/08 07:29:12;;;;;;;11.95;3.95;;;;;;;;;;6200743;23;20013;-95
2023/06/08 07:31:39;;;;;;;15.45;3.90;;;;;;;;;;6200263;23;20065;-93
2023/06/08 07:34:11;;;;;;;12.85;4.15;;;;;;;;;;6200877;23;20031;-93
2023/06/08 07:36:37;;;;;;;18.45;4.57;;;;;;;;;;6226661;23;20033;-94
2023/06/08 07:39:04;;;;;;;10.93;4.22;;;;;;;;;;6201295;23;20009;-95
2023/06/08 07:41:30;;;;;;;18.45;4.57;;;;;;;;;;6202943;23;20012;-93
2023/06/08 07:43:57;;;;;;;12.27;4.32;;;;;;;;;;6202277;23;20340;-92
2023/06/08 07:46:23;;;;;;;16.40;3.83;;;;;;;;;;6202558;23;20540;-93
2023/06/08 07:48:53;;;;;;;15.63;5.38;;;;;;;;;;6202736;23;20048;-94
2023/06/08 07:51:25;;;;;;;12.68;4.05;;;;;;;;;;6201586;23;20004;-93
2023/06/08 07:53:52;;;;;;;16.85;3.88;;;;;;;;;;6202487;23;20305;-93
2023/06/08 07:56:21;;;;;;;21.88;5.38;;;;;;;;;;6201292;23;20016;-95
2023/06/08 07:58:48;;;;;;;14.15;4.97;;;;;;;;;;6198717;23;20005;-93
2023/06/08 08:01:16;;;;;;;13.65;4.15;;;;;;;;;;6197589;23;20080;-94
2023/06/08 08:03:42;;;;;;;15.73;4.25;;;;;;;;;;6199751;23;20509;-94
2023/06/08 08:06:08;;;;;;;13.07;4.50;;;;;;;;;;6226063;23;20418;-93
2023/06/08 08:08:34;;;;;;;29.98;5.65;;;;;;;;;;6203373;23;20072;-95
2023/06/08 08:11:01;;;;;;;13.68;3.63;;;;;;;;;;6207895;23;20020;-94
2023/06/08 08:13:28;;;;;;;9.40;4.22;;;;;;;;;;6209425;23;19989;-94
2023/06/08 08:16:06;;;;;;;16.55;4.97;;;;;;;;;;6210987;23;20012;-94
2023/06/08 08:18:32;;;;;;;14.55;3.95;;;;;;;;;;6211185;23;20004;-92
2023/06/08 08:20:58;;;;;;;15.82;4.57;;;;;;;;;;6212017;23;20061;-94
2023/06/08 08:23:24;;;;;;;12.18;4.00;;;;;;;;;;6212144;23;20048;-94
2023/06/08 08:25:51;;;;;;;12.23;3.78;;;;;;;;;;6212233;23;20004;-92
2023/06/08 08:28:17;;;;;;;15.30;3.95;;;;;;;;;;6211910;23;20004;-93
2023/06/08 08:30:46;;;;;;;13.18;4.03;;;;;;;;;;6208428;23;20005;-93
2023/06/08 08:33:13;;;;;;;15.50;4.47;;;;;;;;;;6200765;23;20015;-93
2023/06/08 08:35:40;;;;;;;6.38;3.55;;;;;;;;;;6198207;23;20005;-93
2023/06/08 08:38:06;;;;;;;10.90;3.47;;;;;;;;;;6197745;23;20010;-93
2023/06/08 08:40:43;;;;;;;13.57;4.13;;;;;;;;;;6198473;23;20210;-93
2023/06/08 08:43:28;;;;;;;10.70;4.18;;;;;;;;;;6196360;23;20076;-94
2023/06/08 08:46:00;;;;;;;13.63;4.07;;;;;;;;;;6198830;23;20009;-92
2023/06/08 08:48:42;;;;;;;8.93;3.78;;;;;;;;;;6195952;23;20009;-94
2023/06/08 08:51:12;;;;;;;12.27;4.38;;;;;;;;;;6197822;23;20027;-94
2023/06/08 08:53:40;;;;;;;10.98;4.18;;;;;;;;;;6196937;23;20004;-93
2023/06/08 08:56:42;;;;;;;12.15;4.75;;;;;;;;;;6196531;23;20023;-94
2023/06/08 08:59:19;;;;;;;14.65;4.68;;;;;;;;;;6195775;23;20070;-94
2023/06/08 09:02:36;;;;;;;10.07;4.38;;;;;;;;;;6196763;23;20016;-93
2023/06/08 09:05:48;;;;;;;;;;;;;;;;;;;;;
2023/06/08 09:08:28;;;;;;;12.18;4.20;;;;;;;;;;6227332;23;20035;-94
2023/06/08 09:14:54;;;;;;;10.30;3.97;;;;;;;;;;6136531;23;20002;-94
2023/06/08 09:17:51;;;;;;;13.90;4.15;;;;;;;;;;6184992;23;20009;-95
2023/06/08 09:20:37;;;;;;;12.38;3.95;;;;;;;;;;6197003;23;20015;-93
2023/06/08 09:23:26;;;;;;;17.13;4.13;;;;;;;;;;6199100;23;20009;-94
2023/06/08 09:25:53;;;;;;;10.63;4.53;;;;;;;;;;6196787;23;20071;-94
2023/06/08 09:31:20;;;;;;;10.32;4.00;;;;;;;;;;6122069;23;20021;-93
2023/06/08 09:34:07;;;;;;;15.13;4.50;;;;;;;;;;6205287;23;20019;-95
2023/06/08 09:36:48;;;;;;;11.38;3.70;;;;;;;;;;6223603;23;20040;-94
2023/06/08 09:39:19;;;;;;;12.43;4.40;;;;;;;;;;6196217;23;20438;-94
2023/06/08 09:42:03;;;;;;;15.68;4.57;;;;;;;;;;6199931;23;20031;-93
2023/06/08 09:44:36;;;;;;;11.65;3.78;;;;;;;;;;6199417;23;20009;-94
2023/06/08 09:47:21;;;;;;;13.02;4.72;;;;;;;;;;6199191;23;20100;-94
2023/06/08 09:49:52;;;;;;;13.10;4.38;;;;;;;;;;6198461;23;20367;-94
2023/06/08 09:52:32;;;;;;;11.13;4.00;;;;;;;;;;6199894;23;20009;-95
2023/06/08 09:55:00;;;;;;;11.80;3.92;;;;;;;;;;6199720;23;20067;-93
2023/06/08 09:57:34;;;;;;;10.05;4.38;;;;;;;;;;6200558;23;20009;-94
2023/06/08 10:00:23;;;;;;;9.50;3.63;;;;;;;;;;6224391;23;20364;-93
2023/06/08 10:03:06;;;;;;;18.90;4.63;;;;;;;;;;6198783;22;20032;-94
2023/06/08 10:08:22;;;;;;;7.63;3.60;;;;;;;;;;6227893;23;20044;-94
2023/06/08 10:10:52;;;;;;;12.48;4.22;;;;;;;;;;6198547;23;20009;-93
2023/06/08 10:13:58;;;;;;;10.38;4.43;;;;;;;;;;6196258;23;20013;-94
2023/06/08 10:16:28;;;;;;;10.83;3.97;;;;;;;;;;6109242;23;20445;-93
2023/06/08 10:18:57;;;;;;;6.78;3.65;;;;;;;;;;6108928;23;20057;-94
2023/06/08 10:21:27;;;;;;;11.82;4.40;;;;;;;;;;6158048;23;20012;-94
2023/06/08 10:24:10;;;;;;;14.73;4.63;;;;;;;;;;6225070;23;20064;-95
2023/06/08 10:26:48;;;;;;;11.73;4.38;;;;;;;;;;6202187;23;20015;-94
2023/06/08 10:29:15;;;;;;;15.85;4.90;;;;;;;;;;6200443;23;20016;-94
2023/06/08 10:31:51;;;;;;;14.70;4.50;;;;;;;;;;6202078;23;20040;-94
2023/06/08 10:34:55;;;;;;;14.10;4.15;;;;;;;;;;6201848;23;20514;-94
2023/06/08 10:37:49;;;;;;;10.25;3.95;;;;;;;;;;6202496;23;20022;-94
2023/06/08 10:40:15;;;;;;;10.75;3.65;;;;;;;;;;6134763;23;20020;-94
2023/06/08 10:42:51;;;;;;;12.23;4.10;;;;;;;;;;6111913;23;20021;-93
2023/06/08 10:45:45;;;;;;;9.93;3.78;;;;;;;;;;6169705;23;20012;-96
2023/06/08 10:48:18;;;;;;;13.10;4.10;;;;;;;;;;6110184;23;20045;-94
2023/06/08 10:50:46;;;;;;;9.25;3.85;;;;;;;;;;6196653;23;20009;-94
2023/06/08 10:53:17;;;;;;;8.93;3.75;;;;;;;;;;6200601;23;20004;-94
2023/06/08 10:55:50;;;;;;;8.55;4.10;;;;;;;;;;6200593;23;20031;-94
2023/06/08 10:58:29;;;;;;;10.10;4.13;;;;;;;;;;6201303;23;20012;-94
2023/06/08 11:01:25;;;;;;;11.55;3.70;;;;;;;;;;6201075;23;20013;-93
2023/06/08 11:03:51;;;;;;;14.20;3.57;;;;;;;;;;6200985;22;20248;-94
2023/06/08 11:06:17;;;;;;;10.70;3.90;;;;;;;;;;6202202;23;20009;-95
2023/06/08 11:08:47;;;;;;;12.52;4.75;;;;;;;;;;6199684;23;20301;-94
2023/06/08 11:11:18;;;;;;;7.88;3.65;;;;;;;;;;6201267;23;20359;-94
2023/06/08 11:14:21;;;;;;;7.05;3.42;;;;;;;;;;6200113;23;20015;-94
2023/06/08 11:23:34;;;;;;;9.18;4.13;;;;;;;;;;6149008;23;20099;-93
2023/06/08 11:26:03;;;;;;;14.20;3.90;;;;;;;;;;6134563;23;20010;-94
2023/06/08 11:28:39;;;;;;;10.85;3.75;;;;;;;;;;6189259;23;20008;-93
2023/06/08 11:32:11;;;;;;;8.48;3.90;;;;;;;;;;6200384;23;20012;-93
2023/06/08 11:34:04;;;;;;;8.85;3.60;;;;;;;;;;6199977;23;20051;-94
2023/06/08 11:36:48;;;;;;;11.43;4.18;;;;;;;;;;6204134;23;20009;-94
2023/06/08 11:39:15;;;;;;;12.32;4.00;;;;;;;;;;6196373;23;20411;-93
2023/06/08 11:42:20;;;;;;;8.27;3.72;;;;;;;;;;6198115;23;20012;-94
2023/06/08 11:45:31;;;;;;;;;;;;;;;;;;;;;
2023/06/08 11:48:01;;;;;;;9.93;3.63;;;;;;;;;;6132255;23;20010;-94
2023/06/08 11:54:21;;;;;;;9.38;3.20;;;;;;;;;;6164364;23;20005;-94
2023/06/08 11:57:27;;;;;;;8.07;3.63;;;;;;;;;;6138245;23;20236;-94
2023/06/08 12:00:23;;;;;;;12.23;3.47;;;;;;;;;;6109683;23;20021;-94
2023/06/08 12:03:00;;;;;;;9.55;3.40;;;;;;;;;;6123479;23;20162;-95
2023/06/08 12:09:06;;;;;;;10.80;3.67;;;;;;;;;;6083365;23;20010;-95
2023/06/08 12:17:58;;;;;;;12.18;3.78;;;;;;;;;;6055270;23;20090;-95
2023/06/08 12:20:24;;;;;;;12.20;3.65;;;;;;;;;;6127081;23;20009;-95
2023/06/08 12:23:29;;;;;;;;;;;;;;;;;;;;;
2023/06/08 12:25:58;;;;;;;7.20;3.70;;;;;;;;;;6149580;23;20048;-95
2023/06/08 12:28:32;;;;;;;9.77;3.60;;;;;;;;;;6144459;23;20023;-95
2023/06/08 12:31:01;;;;;;;16.13;3.83;;;;;;;;;;6145201;23;20098;-95
2023/06/08 12:34:02;;;;;;;9.65;3.47;;;;;;;;;;6146211;23;20013;-95
2023/06/08 12:36:31;;;;;;;7.78;3.20;;;;;;;;;;6069778;23;20005;-93
2023/06/08 12:39:07;;;;;;;7.13;3.30;;;;;;;;;;6168517;23;20347;-96
2023/06/08 12:41:40;;;;;;;6.75;3.25;;;;;;;;;;6194102;23;20440;-93
2023/06/08 12:44:10;;;;;;;11.30;3.22;;;;;;;;;;6143308;23;20020;-94
2023/06/08 12:46:58;;;;;;;8.65;3.78;;;;;;;;;;6142224;23;20048;-94
2023/06/08 12:49:24;;;;;;;12.30;3.58;;;;;;;;;;6166015;23;20004;-93
2023/06/08 12:51:56;;;;;;;11.38;3.13;;;;;;;;;;6143567;23;20009;-94
2023/06/08 12:54:43;;;;;;;15.48;3.60;;;;;;;;;;6137572;23;20014;-95
2023/06/08 12:57:14;;;;;;;8.60;3.97;;;;;;;;;;6164817;23;20060;-94
2023/06/08 13:00:06;;;;;;;;;;;;;;;;;;;;;
2023/06/08 13:03:22;;;;;;;22.05;3.90;;;;;;;;;;6184022;22;20044;-94
2023/06/08 13:05:49;;;;;;;12.07;3.60;;;;;;;;;;6106866;23;20041;-95
2023/06/08 13:08:18;;;;;;;19.30;3.78;;;;;;;;;;6126497;23;20008;-95
2023/06/08 13:10:45;;;;;;;29.73;4.07;;;;;;;;;;6224065;23;20000;-95
2023/06/08 13:13:12;;;;;;;7.97;3.67;;;;;;;;;;6195953;23;20035;-96
2023/06/08 13:15:46;;;;;;;19.50;3.88;;;;;;;;;;6195239;23;20018;-95
2023/06/08 13:20:58;;;;;;;9.07;3.53;;;;;;;;;;6150906;23;20015;-95
2023/06/08 13:23:42;;;;;;;8.35;3.38;;;;;;;;;;6201400;23;20013;-95
2023/06/08 13:26:08;;;;;;;6.80;2.85;;;;;;;;;;6202303;23;20013;-95
2023/06/08 13:28:52;;;;;;;10.70;3.30;;;;;;;;;;6200928;23;20211;-95
2023/06/08 13:31:35;;;;;;;11.40;3.10;;;;;;;;;;6199594;23;19996;-95
2023/06/08 13:34:02;;;;;;;9.27;2.95;;;;;;;;;;6201907;23;20061;-94
2023/06/08 13:36:28;;;;;;;11.85;3.20;;;;;;;;;;6199853;23;20011;-94
2023/06/08 13:39:04;;;;;;;7.22;2.83;;;;;;;;;;6200745;23;20030;-94
2023/06/08 13:41:35;;;;;;;7.43;3.13;;;;;;;;;;6200410;23;20083;-95
2023/06/08 13:44:07;;;;;;;15.00;2.83;;;;;;;;;;6199302;23;20035;-95
2023/06/08 13:46:35;;;;;;;6.70;2.83;;;;;;;;;;6198709;23;20039;-94
2023/06/08 13:49:02;;;;;;;7.75;3.40;;;;;;;;;;6198075;23;20000;-94
2023/06/08 13:51:28;;;;;;;8.65;2.90;;;;;;;;;;6196589;23;20004;-95
2023/06/08 13:54:24;;;;;;;13.88;3.42;;;;;;;;;;6197605;23;20005;-94
2023/06/08 13:56:50;;;;;;;;;;;;;;;;;;6187916;23;20005;-95
2023/06/08 13:59:16;;;;;;;10.18;2.97;;;;;;;;;;6196282;23;20211;-94
2023/06/08 14:01:43;;;;;;;8.13;3.45;;;;;;;;;;6221182;23;20013;-93
2023/06/08 14:07:00;;;;;;;8.93;3.10;;;;;;;;;;6160807;23;20015;-94
2023/06/08 14:09:26;;;;;;;11.23;3.17;;;;;;;;;;6194565;23;20020;-95
2023/06/08 14:11:52;;;;;;;11.48;4.30;;;;;;;;;;6193191;23;20005;-94
2023/06/08 14:14:19;;;;;;;9.07;3.55;;;;;;;;;;6195171;23;20005;-95
2023/06/08 14:16:47;;;;;;;9.00;3.35;;;;;;;;;;6194846;23;20248;-94
2023/06/08 14:19:20;;;;;;;9.35;3.40;;;;;;;;;;6195702;23;20039;-94
2023/06/08 14:21:46;;;;;;;6.93;2.70;;;;;;;;;;6194154;23;20009;-94
2023/06/08 14:24:18;;;;;;;7.80;3.65;;;;;;;;;;6194456;23;20012;-95
2023/06/08 14:26:44;;;;;;;8.45;2.63;;;;;;;;;;6194089;23;20544;-94
2023/06/08 14:29:12;;;;;;;15.55;3.35;;;;;;;;;;6196825;23;20352;-94
2023/06/08 14:31:39;;;;;;;11.65;3.95;;;;;;;;;;6196196;23;20013;-94
2023/06/08 14:34:08;;;;;;;8.52;2.97;;;;;;;;;;6195387;23;20016;-94
2023/06/08 14:36:34;;;;;;;6.85;2.80;;;;;;;;;;6195936;23;20004;-95
2023/06/08 14:39:00;;;;;;;8.77;3.42;;;;;;;;;;6194367;23;20040;-95
2023/06/08 14:41:31;;;;;;;11.70;3.03;;;;;;;;;;6194750;23;20058;-95
2023/06/08 14:44:01;;;;;;;12.30;3.50;;;;;;;;;;6193809;23;20005;-94
2023/06/08 14:46:28;;;;;;;9.90;3.22;;;;;;;;;;6193134;23;20012;-94
2023/06/08 14:48:54;;;;;;;10.98;3.40;;;;;;;;;;6191962;23;20001;-95
2023/06/08 14:51:21;;;;;;;8.82;3.92;;;;;;;;;;6192335;23;20009;-94
2023/06/08 14:53:48;;;;;;;13.18;3.20;;;;;;;;;;6191679;23;20066;-94
2023/06/08 14:56:35;;;;;;;7.45;3.25;;;;;;;;;;6191992;23;20024;-95
2023/06/08 14:59:01;;;;;;;9.70;3.00;;;;;;;;;;6216551;23;20015;-96
2023/06/08 15:01:27;;;;;;;12.32;3.47;;;;;;;;;;6190809;23;20096;-95
2023/06/08 15:03:55;;;;;;;9.30;2.75;;;;;;;;;;6191919;23;20059;-95
2023/06/08 15:06:24;;;;;;;8.38;3.30;;;;;;;;;;6193650;23;20047;-95
2023/06/08 15:08:54;;;;;;;12.52;3.65;;;;;;;;;;6193168;23;20016;-94
2023/06/08 15:11:20;;;;;;;11.38;3.60;;;;;;;;;;6195745;23;20013;-94
2023/06/08 15:13:47;;;;;;;8.90;3.45;;;;;;;;;;6192726;23;20004;-95
2023/06/08 15:16:26;;;;;;;10.80;2.85;;;;;;;;;;6193594;23;20047;-95
2023/06/08 15:18:52;;;;;;;7.03;3.15;;;;;;;;;;6193330;23;20011;-95
2023/06/08 15:21:19;;;;;;;13.63;3.42;;;;;;;;;;6193573;23;20013;-95
2023/06/08 15:23:46;;;;;;;15.40;3.55;;;;;;;;;;6193542;23;20104;-95
2023/06/08 15:26:13;;;;;;;13.68;3.47;;;;;;;;;;6194541;23;20008;-95
2023/06/08 15:28:42;;;;;;;14.23;3.60;;;;;;;;;;6192966;23;20036;-94
2023/06/08 15:31:08;;;;;;;13.57;4.32;;;;;;;;;;6192839;23;20008;-94
2023/06/08 15:33:34;;;;;;;9.13;3.60;;;;;;;;;;6192192;23;20087;-95
2023/06/08 15:36:01;;;;;;;12.27;3.60;;;;;;;;;;6192774;23;20008;-95
2023/06/08 15:38:27;;;;;;;11.82;3.53;;;;;;;;;;6194119;23;20443;-94
2023/06/08 15:40:58;;;;;;;12.23;3.65;;;;;;;;;;6193734;23;20095;-94
2023/06/08 15:43:29;;;;;;;14.00;3.75;;;;;;;;;;6195029;23;20012;-94
2023/06/08 15:45:56;;;;;;;9.90;3.35;;;;;;;;;;6191917;23;20016;-93
2023/06/08 15:48:22;;;;;;;7.45;2.80;;;;;;;;;;6192791;23;20012;-94
2023/06/08 15:50:48;;;;;;;10.77;3.28;;;;;;;;;;6192961;23;20068;-94
2023/06/08 15:53:15;;;;;;;9.00;2.72;;;;;;;;;;6193047;23;20019;-94
2023/06/08 15:55:44;;;;;;;8.40;3.28;;;;;;;;;;6194209;23;20088;-94
2023/06/08 15:58:10;;;;;;;8.52;3.60;;;;;;;;;;6194537;23;20019;-94
2023/06/08 16:00:37;;;;;;;9.00;2.90;;;;;;;;;;6195078;23;20013;-94
2023/06/08 16:03:03;;;;;;;10.85;3.78;;;;;;;;;;6194346;22;20598;-94